OH41 weather

CLOSED Cutler Field
Powell, Ohio, United States

Public forecast

Using degrees Fahrenheit for public forecast. Weather courtesy of forecast.io.

METAR (pilot weather report)

Closest report is Delaware Municipal Airport, 5.2 nm (9.6 km) N. Retrieved 2019/05/21 15:35 UTC (25 minutes ago):

KDLZ 211535Z AUTO 09010KT 10SM CLR 12/03 A3016 RMK AO2

TAF (pilot weather forecast)

Closest forecast is John Glenn Columbus International Airport, 15.5 nm (28.7 km) SE. Retrieved 2019/05/21 12:30 UTC (3 hours ago):

TAF KCMH 211129Z 2112/2212 05006KT P6SM FEW030 BKN150 FM211500 07008KT P6SM BKN100 FM220300 09009KT P6SM FEW100 FM221100 11009KT P6SM SCT070 BKN250